Plainfield, IN

11:13 AM EDT on August 30, 2014 (GMT -0400)
WestBay | Change Station
CLOSE
Current Station
Personal Weather Station
Location: Plainfield, IN
Elevation: 778 ft
Nearby Weather Stations

Elev 778 ft 39.70 °N, 86.43 °W | Updated 5 minutes ago

Mostly Cloudy
Mostly Cloudy
75.9 °F
Feels Like 75 °F
N
7.8
Wind Variable Wind from East

Today
High -- | Low -- °F
--% Chance of Precip.
Yesterday
High -- | Low -- °F
Precip. -- in
7:11 AM 8:19 PM
Waxing Crescent, 22% visible
Pressure 29.99 in
Visibility 10.0 miles
Clouds Few 1000 ft
Few 9000 ft
Scattered Clouds 14000 ft
Mostly Cloudy 25000 ft
Heat Index 75 °F
Dew Point 75 °F
Humidity 98%
Rainfall 0.00 in
Snow Depth Not available.
UV 3 out of 12
Pollen 9.30 out of 12
Ozone Good
PM2.5 Moderate
Flu Activity Not available.
METAR KIND 301454Z 20014G19KT 10SM FEW010 FEW090 SCT140 BKN250 23/20 A3001 RMK AO2 SLP156 60002 T02330200 53008

More Conditions Fewer Conditions

Pressure 29.99 in
Visibility 10.0 miles
Clouds Few 1000 ft
Few 9000 ft
Scattered Clouds 14000 ft
Mostly Cloudy 25000 ft
Heat Index 75 °F
Dew Point 75 °F
Humidity 98%
Rainfall 0.00 in
Snow Depth Not available.
UV 3 out of 12
Pollen 9.30 out of 12
Ozone Good
PM2.5 Moderate
Flu Activity Not available.
METAR KIND 301454Z 20014G19KT 10SM FEW010 FEW090 SCT140 BKN250 23/20 A3001 RMK AO2 SLP156 60002 T02330200 53008

More Conditions Fewer Conditions

10-Day Weather Forecast

Almanac

Astronomy

Aug. 30, 2014 Rise Set
Actual Time 7:11 AM EDT 8:19 PM EDT
Civil Twilight 6:44 AM EDT 8:47 PM EDT
Nautical Twilight 6:10 AM EDT 9:20 PM EDT
Astronomical Twilight 5:36 AM EDT 9:55 PM EDT
Moon 11:58 AM EDT 10:54 PM EDT
Length of Visible Light 14h 03m
Length of Day
13h 08m
Tomorrow will be 2m 30s shorter.
Waxing Crescent, 22% of the Moon is Illuminated
Today
Waxing Crescent
Sep 2
First Quarter
Sep 8
Full
Sep 15
Last Quarter
Sep 24
New

Today's Extremes

State Highs State Lows

Community

WunderPhotos

Upload Photos

1,748,543 photos uploaded!

WunderBlogs® & News

Nearby

Air Quality

  Air Quality AQ Index Pollutant
Yesterday Good
PM10
Yesterday Good
OZONE
Current Moderate
PM2.5
Current Good
OZONE
Saturday Moderate
PM2.5
Saturday Good
OZONE
Sunday Moderate
PM2.5
Sunday Good
OZONE
Monday Moderate
PM2.5
Monday Good
OZONE
Tuesday Moderate
PM2.5
Tuesday Good
OZONE

Snow Depth

Station Depth Elevation
No new snow has been reported.

Earthquake Activity

City Distance Mag. Time & Date
No recent earthquake activity has been reported nearby.
Minimum magnitude displayed is 2.5.

Coastal Water Temperatures

Place Temperature
No Stations Reporting

Nearby Weather Stations